Time;durP1;ratioP1;P1;durP2;ratioP2;P2;SDS_P1;SDS_P2;PMS_P1;PMS_P2;Temp;Humidity;BMP_temperature;BMP_pressure;BME280_temperature;BME280_humidity;BME280_pressure;Samples;Min_cycle;Max_cycle;Signal;HPM_P1;HPM_P2
2021/03/16 00:02:12;;;;;;;7.53;1.83;;;1.40;92.20;;;;;;4988274;28;20026;-67
2021/03/16 00:04:37;;;;;;;4.10;1.60;;;1.40;92.10;;;;;;4982830;28;20030;-68
2021/03/16 00:07:07;;;;;;;15.32;2.05;;;1.30;92.30;;;;;;4986748;28;20034;-69
2021/03/16 00:09:33;;;;;;;7.32;1.95;;;1.30;92.40;;;;;;4984187;28;20038;-70
2021/03/16 00:11:58;;;;;;;14.55;2.17;;;1.20;92.50;;;;;;4987098;28;20105;-68
2021/03/16 00:14:24;;;;;;;10.25;1.88;;;1.20;92.50;;;;;;4986890;28;20054;-68
2021/03/16 00:16:51;;;;;;;4.80;1.67;;;1.20;92.50;;;;;;4986223;28;20041;-68
2021/03/16 00:19:20;;;;;;;4.65;1.75;;;1.20;92.50;;;;;;4984884;28;20541;-67
2021/03/16 00:21:45;;;;;;;9.15;1.60;;;1.20;92.10;;;;;;4981354;28;20053;-69
2021/03/16 00:24:11;;;;;;;11.13;1.92;;;1.20;92.30;;;;;;4984203;28;20038;-70
2021/03/16 00:26:37;;;;;;;8.02;1.70;;;1.20;92.10;;;;;;4985640;28;20046;-69
2021/03/16 00:29:03;;;;;;;7.68;1.50;;;1.20;92.00;;;;;;4984911;28;20065;-67
2021/03/16 00:31:28;;;;;;;12.35;2.50;;;1.20;92.30;;;;;;4981490;28;20022;-67
2021/03/16 00:33:54;;;;;;;8.40;1.60;;;1.10;91.80;;;;;;4985551;28;20044;-69
2021/03/16 00:36:19;;;;;;;8.05;1.42;;;1.10;91.90;;;;;;4988105;28;20023;-68
2021/03/16 00:38:45;;;;;;;10.68;2.60;;;1.10;91.60;;;;;;4985345;28;20453;-71
2021/03/16 00:41:10;;;;;;;9.23;1.92;;;1.10;91.90;;;;;;4987149;28;20033;-68
2021/03/16 00:43:36;;;;;;;8.38;1.70;;;1.10;91.80;;;;;;4986242;28;20602;-67
2021/03/16 00:46:02;;;;;;;6.05;1.77;;;1.10;91.70;;;;;;4987736;28;20041;-68
2021/03/16 00:48:28;;;;;;;5.88;1.67;;;1.10;91.50;;;;;;4983981;28;20069;-70
2021/03/16 00:50:54;;;;;;;10.20;1.60;;;1.10;91.50;;;;;;4981005;28;20070;-69
2021/03/16 00:53:20;;;;;;;7.80;1.52;;;1.10;91.50;;;;;;4983612;28;20058;-68
2021/03/16 00:55:45;;;;;;;8.57;1.92;;;1.10;91.60;;;;;;4977502;28;20541;-68
2021/03/16 00:58:11;;;;;;;5.85;1.75;;;1.10;91.60;;;;;;4984149;28;20038;-67
2021/03/16 01:00:36;;;;;;;6.55;1.30;;;1.00;91.90;;;;;;4985414;28;20031;-67
2021/03/16 01:03:03;;;;;;;12.30;1.77;;;1.00;92.00;;;;;;4986590;28;20054;-68
2021/03/16 01:05:28;;;;;;;9.05;1.60;;;0.90;92.30;;;;;;4984630;28;20026;-67
2021/03/16 01:07:54;;;;;;;5.18;1.63;;;0.90;92.30;;;;;;4980398;28;20080;-68
2021/03/16 01:10:22;;;;;;;10.23;2.20;;;0.90;92.30;;;;;;4981573;28;20027;-67
2021/03/16 01:12:48;;;;;;;8.98;1.33;;;0.80;92.30;;;;;;4986701;28;20034;-68
2021/03/16 01:15:14;;;;;;;9.43;2.20;;;0.90;92.40;;;;;;4984942;28;20122;-68
2021/03/16 01:17:40;;;;;;;9.43;1.60;;;0.80;92.60;;;;;;4985133;28;20034;-67
2021/03/16 01:20:16;;;;;;;14.70;2.00;;;0.80;92.70;;;;;;4986435;28;20057;-67
2021/03/16 01:22:42;;;;;;;5.07;1.58;;;0.70;92.90;;;;;;4980286;28;20730;-69
2021/03/16 01:25:08;;;;;;;7.63;1.90;;;0.80;93.00;;;;;;4980987;28;20023;-70
2021/03/16 01:27:34;;;;;;;6.50;1.77;;;0.80;93.00;;;;;;4985798;28;20033;-68
2021/03/16 01:30:00;;;;;;;10.13;1.83;;;0.70;92.90;;;;;;4984651;28;20022;-69
2021/03/16 01:32:26;;;;;;;7.55;1.60;;;0.70;92.90;;;;;;4982176;28;20038;-69
2021/03/16 01:34:51;;;;;;;5.65;1.70;;;0.70;92.90;;;;;;4985304;28;20045;-70
2021/03/16 01:37:17;;;;;;;10.52;1.90;;;0.70;93.00;;;;;;4985676;28;20019;-68
2021/03/16 01:39:44;;;;;;;8.38;1.50;;;0.60;93.00;;;;;;4984739;28;20026;-71
2021/03/16 01:42:10;;;;;;;7.88;1.55;;;0.70;93.00;;;;;;4984972;28;20080;-69
2021/03/16 01:44:36;;;;;;;6.70;1.67;;;0.60;93.10;;;;;;4985409;28;20038;-68
2021/03/16 01:47:02;;;;;;;6.93;1.83;;;0.50;93.20;;;;;;4984168;28;20022;-68
2021/03/16 01:49:28;;;;;;;5.03;1.77;;;0.60;93.20;;;;;;4981398;28;20022;-68
2021/03/16 01:51:54;;;;;;;10.18;1.65;;;0.60;93.30;;;;;;4985514;28;20037;-68
2021/03/16 01:54:19;;;;;;;8.75;1.60;;;0.50;93.20;;;;;;4985228;28;20030;-68
2021/03/16 01:56:47;;;;;;;7.72;1.65;;;0.50;93.40;;;;;;4983974;28;20115;-71
2021/03/16 01:59:17;;;;;;;9.90;1.90;;;0.40;93.50;;;;;;4982938;28;20134;-68
2021/03/16 02:01:46;;;;;;;7.87;1.73;;;0.30;93.70;;;;;;4983007;28;20042;-71
2021/03/16 02:04:12;;;;;;;13.75;1.77;;;0.30;93.80;;;;;;4988132;28;20348;-68
2021/03/16 02:06:43;;;;;;;5.15;1.77;;;0.30;94.00;;;;;;4987296;28;20038;-70
2021/03/16 02:09:29;;;;;;;;;;;0.30;94.10;;;;;;4986127;28;20548;-68
2021/03/16 02:12:18;;;;;;;11.52;2.05;;;0.30;94.10;;;;;;4980279;28;19916;-67
2021/03/16 02:15:23;;;;;;;11.60;1.75;;;0.40;94.40;;;;;;4986775;28;20022;-71
2021/03/16 02:17:55;;;;;;;18.65;2.28;;;0.40;94.50;;;;;;4964175;28;20553;-69
2021/03/16 02:20:39;;;;;;;9.23;2.00;;;0.40;94.70;;;;;;4984325;28;20049;-68
2021/03/16 02:23:07;;;;;;;19.08;1.70;;;0.40;95.00;;;;;;4984625;28;20027;-70
2021/03/16 02:26:01;;;;;;;14.52;2.83;;;0.40;95.10;;;;;;4986139;28;21604;-68
2021/03/16 02:28:29;;;;;;;8.70;2.17;;;0.60;95.50;;;;;;4978061;28;20033;-68
2021/03/16 02:30:57;;;;;;;11.93;2.00;;;0.60;95.40;;;;;;4986053;28;20026;-71
2021/03/16 02:33:25;;;;;;;18.85;2.65;;;0.60;95.50;;;;;;4984058;28;20038;-69
2021/03/16 02:35:51;;;;;;;19.70;2.35;;;0.60;95.50;;;;;;4987378;28;20026;-69
2021/03/16 02:38:21;;;;;;;11.75;2.50;;;0.70;95.50;;;;;;4980423;28;20022;-69
2021/03/16 02:40:48;;;;;;;10.23;2.45;;;0.70;95.40;;;;;;4986933;28;20120;-69
2021/03/16 02:43:15;;;;;;;18.95;2.60;;;0.70;95.40;;;;;;4985516;28;20037;-67
2021/03/16 02:45:41;;;;;;;13.68;2.17;;;0.80;95.40;;;;;;4983554;28;20511;-68
2021/03/16 02:48:08;;;;;;;19.25;2.75;;;0.80;95.30;;;;;;4977265;28;20022;-69
2021/03/16 02:50:34;;;;;;;13.20;2.67;;;0.90;95.30;;;;;;4984601;28;20391;-68
2021/03/16 02:53:00;;;;;;;21.40;3.25;;;0.90;95.20;;;;;;4980581;28;20395;-68
2021/03/16 02:55:27;;;;;;;11.85;2.95;;;0.90;95.20;;;;;;4980368;28;20035;-68
2021/03/16 02:57:53;;;;;;;13.63;2.78;;;0.90;95.10;;;;;;4981515;28;20072;-68
2021/03/16 03:00:20;;;;;;;16.80;3.00;;;1.00;95.20;;;;;;4982726;28;20118;-71
2021/03/16 03:02:48;;;;;;;15.45;3.50;;;1.10;95.20;;;;;;4985871;28;20045;-68
2021/03/16 03:05:14;;;;;;;11.35;2.78;;;1.10;95.20;;;;;;4983430;28;20254;-68
2021/03/16 03:07:41;;;;;;;9.75;2.50;;;1.10;95.10;;;;;;4983843;28;20398;-71
2021/03/16 03:10:08;;;;;;;16.55;3.28;;;1.10;95.10;;;;;;4984501;28;20387;-68
2021/03/16 03:12:34;;;;;;;25.45;3.40;;;1.10;95.20;;;;;;4986022;28;20094;-68
2021/03/16 03:14:59;;;;;;;14.20;3.03;;;1.10;95.30;;;;;;4985052;28;20117;-68
2021/03/16 03:17:25;;;;;;;27.40;3.72;;;1.20;95.30;;;;;;4983661;28;20109;-68
2021/03/16 03:19:51;;;;;;;17.80;3.63;;;1.20;95.40;;;;;;4986211;28;20513;-69
2021/03/16 03:22:37;;;;;;;19.80;3.47;;;1.20;95.40;;;;;;4983065;28;20023;-68
2021/03/16 03:25:20;;;;;;;18.35;4.32;;;1.20;95.50;;;;;;4983634;28;20026;-69
2021/03/16 03:27:52;;;;;;;15.85;3.75;;;1.20;95.70;;;;;;4976330;28;20031;-68
2021/03/16 03:30:21;;;;;;;24.52;4.43;;;1.20;95.70;;;;;;4986336;28;20458;-69
2021/03/16 03:32:47;;;;;;;22.80;4.72;;;1.30;95.90;;;;;;4985278;28;20037;-69
2021/03/16 03:35:14;;;;;;;21.15;4.47;;;1.30;95.90;;;;;;4986637;28;20027;-70
2021/03/16 03:37:42;;;;;;;28.92;5.57;;;1.40;96.10;;;;;;4981997;28;20042;-72
2021/03/16 03:40:09;;;;;;;25.60;5.97;;;1.50;96.20;;;;;;5002427;28;20049;-68
2021/03/16 03:42:35;;;;;;;26.20;5.97;;;1.60;96.20;;;;;;4971621;28;20143;-67
2021/03/16 03:45:04;;;;;;;22.15;6.32;;;1.70;96.30;;;;;;4988159;28;20095;-69
2021/03/16 03:47:31;;;;;;;22.35;5.97;;;1.70;96.40;;;;;;4984509;28;20076;-70
2021/03/16 03:49:58;;;;;;;28.83;6.10;;;1.90;96.50;;;;;;4989609;28;20113;-68
2021/03/16 03:52:25;;;;;;;35.42;7.10;;;1.90;96.40;;;;;;4988351;28;20376;-70
2021/03/16 03:54:52;;;;;;;32.78;6.35;;;2.00;96.50;;;;;;4981854;28;20026;-68
2021/03/16 03:57:18;;;;;;;36.50;7.38;;;2.00;96.50;;;;;;4982973;28;20113;-70
2021/03/16 03:59:46;;;;;;;38.83;7.72;;;2.10;96.50;;;;;;4984401;28;20034;-70
2021/03/16 04:02:12;;;;;;;38.13;7.43;;;2.20;96.50;;;;;;4989664;28;20034;-69
2021/03/16 04:04:39;;;;;;;29.35;7.80;;;2.20;96.50;;;;;;4988386;28;20034;-69
2021/03/16 04:07:07;;;;;;;38.22;7.45;;;2.20;96.50;;;;;;4985442;28;20029;-69
2021/03/16 04:09:32;;;;;;;36.30;7.15;;;2.30;96.50;;;;;;4986233;28;20037;-68
2021/03/16 04:11:59;;;;;;;39.92;8.15;;;2.30;96.50;;;;;;4987389;28;20027;-67
2021/03/16 04:14:27;;;;;;;36.65;6.65;;;2.30;96.50;;;;;;4988058;28;20390;-68
2021/03/16 04:16:53;;;;;;;17.88;6.25;;;2.40;96.40;;;;;;4988608;28;20588;-68
2021/03/16 04:19:19;;;;;;;32.35;7.70;;;2.40;96.30;;;;;;4986434;28;20081;-68
2021/03/16 04:21:45;;;;;;;28.95;7.32;;;2.40;96.20;;;;;;4978618;28;20030;-68
2021/03/16 04:24:13;;;;;;;22.05;7.32;;;2.40;96.10;;;;;;4983006;28;20028;-69
2021/03/16 04:26:38;;;;;;;26.35;7.82;;;2.50;96.10;;;;;;4985883;28;20026;-67
2021/03/16 04:29:04;;;;;;;35.15;7.63;;;2.50;96.00;;;;;;4988999;28;20033;-69
2021/03/16 04:31:30;;;;;;;32.42;7.22;;;2.50;95.80;;;;;;4982484;28;20038;-70
2021/03/16 04:33:56;;;;;;;26.10;7.60;;;2.50;95.70;;;;;;4987498;28;20018;-69
2021/03/16 04:36:21;;;;;;;28.85;8.02;;;2.60;95.70;;;;;;4987792;28;20073;-68
2021/03/16 04:38:47;;;;;;;30.33;7.63;;;2.60;95.70;;;;;;4988383;28;20520;-68
2021/03/16 04:41:13;;;;;;;22.20;6.40;;;2.60;95.60;;;;;;4987065;28;20399;-70
2021/03/16 04:43:41;;;;;;;27.55;7.30;;;2.60;95.50;;;;;;4989102;28;20030;-68
2021/03/16 04:46:08;;;;;;;30.63;7.55;;;2.60;95.40;;;;;;4977311;28;20118;-70
2021/03/16 04:48:34;;;;;;;26.15;7.03;;;2.70;95.30;;;;;;4986481;28;20513;-68
2021/03/16 04:50:59;;;;;;;26.88;7.30;;;2.70;95.10;;;;;;4981854;28;20030;-69
2021/03/16 04:53:25;;;;;;;29.58;7.07;;;2.70;95.00;;;;;;4987021;28;20031;-68
2021/03/16 04:55:51;;;;;;;25.02;6.80;;;2.70;95.10;;;;;;4982544;28;20746;-68
2021/03/16 04:58:16;;;;;;;31.60;7.10;;;2.80;94.90;;;;;;4988147;28;20061;-68
2021/03/16 05:00:42;;;;;;;30.95;6.57;;;2.80;94.70;;;;;;4980743;28;20039;-70
2021/03/16 05:03:07;;;;;;;32.13;7.18;;;2.90;94.40;;;;;;4972134;28;20027;-69
2021/03/16 05:05:33;;;;;;;24.13;6.90;;;3.00;94.20;;;;;;4988506;28;20109;-68
2021/03/16 05:07:58;;;;;;;28.13;5.70;;;3.00;94.00;;;;;;4988308;28;20030;-70
2021/03/16 05:10:25;;;;;;;22.85;6.18;;;3.00;94.00;;;;;;4984157;28;20048;-70
2021/03/16 05:12:50;;;;;;;28.00;6.47;;;3.00;94.00;;;;;;4987528;28;20058;-67
2021/03/16 05:15:16;;;;;;;20.95;5.95;;;3.10;93.60;;;;;;4984759;28;20042;-70
2021/03/16 05:17:42;;;;;;;26.20;5.70;;;3.20;93.20;;;;;;4984589;28;20034;-69
2021/03/16 05:20:08;;;;;;;24.75;6.20;;;3.20;93.30;;;;;;4982955;28;20030;-69
2021/03/16 05:22:34;;;;;;;21.92;5.90;;;3.20;93.20;;;;;;4987517;28;20030;-68
2021/03/16 05:25:00;;;;;;;21.92;5.80;;;3.30;93.00;;;;;;4982512;28;20092;-70
2021/03/16 05:27:26;;;;;;;24.40;5.60;;;3.30;93.00;;;;;;4983997;28;20042;-69
2021/03/16 05:29:51;;;;;;;25.50;5.90;;;3.40;92.80;;;;;;4983375;28;20351;-68
2021/03/16 05:32:17;;;;;;;26.80;5.57;;;3.40;92.50;;;;;;4987597;28;20038;-68
2021/03/16 05:34:42;;;;;;;20.23;5.70;;;3.50;92.60;;;;;;4985991;28;20031;-68
2021/03/16 05:37:08;;;;;;;27.85;5.28;;;3.40;92.70;;;;;;4989212;28;20612;-68
2021/03/16 05:39:33;;;;;;;24.17;5.07;;;3.50;92.70;;;;;;4980021;28;20038;-68
2021/03/16 05:42:00;;;;;;;25.50;4.97;;;3.50;92.50;;;;;;4988075;28;20372;-68
2021/03/16 05:44:27;;;;;;;24.13;5.78;;;3.60;92.00;;;;;;4985533;28;20572;-68
2021/03/16 05:46:53;;;;;;;16.90;3.58;;;3.60;92.20;;;;;;4988174;28;20030;-69
2021/03/16 05:49:22;;;;;;;16.83;4.60;;;3.60;91.90;;;;;;4985811;28;20398;-69
2021/03/16 05:51:47;;;;;;;15.95;4.25;;;3.70;90.50;;;;;;4985830;28;20382;-68
2021/03/16 05:54:15;;;;;;;27.92;4.50;;;3.70;90.90;;;;;;4979979;28;20035;-69
2021/03/16 05:56:41;;;;;;;15.88;4.72;;;3.80;90.60;;;;;;4984477;28;20027;-68
2021/03/16 05:59:08;;;;;;;19.55;4.00;;;3.70;90.70;;;;;;4983723;28;20026;-68
2021/03/16 06:01:33;;;;;;;17.75;4.07;;;3.80;90.60;;;;;;4984369;28;20434;-69
2021/03/16 06:04:01;;;;;;;24.52;4.20;;;3.80;90.90;;;;;;4983514;28;20030;-68
2021/03/16 06:06:26;;;;;;;20.85;3.45;;;3.80;90.70;;;;;;4986711;28;20130;-68
2021/03/16 06:08:52;;;;;;;17.38;3.38;;;3.90;89.90;;;;;;4984244;28;20067;-68
2021/03/16 06:11:18;;;;;;;20.02;3.70;;;3.90;90.00;;;;;;4985456;28;20022;-70
2021/03/16 06:13:53;;;;;;;19.17;3.30;;;3.80;89.90;;;;;;4986884;28;20026;-69
2021/03/16 06:16:19;;;;;;;17.00;2.83;;;3.90;89.90;;;;;;4987563;28;20031;-69
2021/03/16 06:18:46;;;;;;;19.58;2.97;;;3.90;90.10;;;;;;4985616;28;20557;-68
2021/03/16 06:21:17;;;;;;;12.18;3.08;;;3.90;89.70;;;;;;4988710;28;20030;-68
2021/03/16 06:23:52;;;;;;;21.52;2.33;;;4.00;89.30;;;;;;4982257;28;20406;-68
2021/03/16 06:26:19;;;;;;;14.95;2.55;;;4.00;89.40;;;;;;4982543;28;20037;-69
2021/03/16 06:28:45;;;;;;;14.05;2.83;;;4.00;89.40;;;;;;4985757;28;20026;-69
2021/03/16 06:31:24;;;;;;;18.85;2.92;;;4.00;89.50;;;;;;4986827;28;20515;-69
2021/03/16 06:33:50;;;;;;;20.30;2.80;;;4.00;89.40;;;;;;4984288;28;20449;-69
2021/03/16 06:36:16;;;;;;;13.20;2.85;;;4.00;89.70;;;;;;4972604;28;20049;-69
2021/03/16 06:38:42;;;;;;;18.73;2.80;;;4.00;89.80;;;;;;4983492;28;20038;-69
2021/03/16 06:41:12;;;;;;;13.32;3.17;;;4.10;90.10;;;;;;4997565;28;20173;-70
2021/03/16 06:43:41;;;;;;;16.37;2.37;;;4.10;90.00;;;;;;4985697;28;20509;-69
2021/03/16 06:46:07;;;;;;;18.05;2.70;;;4.10;90.00;;;;;;4983970;28;20388;-69
2021/03/16 06:48:37;;;;;;;15.52;2.17;;;4.10;90.30;;;;;;4982858;28;20041;-69
2021/03/16 06:51:14;;;;;;;20.20;2.93;;;4.10;89.80;;;;;;4984076;28;20027;-68
2021/03/16 06:53:40;;;;;;;12.25;2.63;;;4.10;88.80;;;;;;4984237;28;20292;-69
2021/03/16 06:56:06;;;;;;;11.32;2.38;;;4.10;88.40;;;;;;4983073;28;20034;-68
2021/03/16 06:58:35;;;;;;;11.50;1.98;;;4.20;88.50;;;;;;4983514;28;20473;-69
2021/03/16 07:01:08;;;;;;;16.30;2.65;;;4.20;88.90;;;;;;4986200;28;20414;-68
2021/03/16 07:03:34;;;;;;;14.30;2.35;;;4.20;89.10;;;;;;4981562;28;20282;-68
2021/03/16 07:06:12;;;;;;;18.67;2.50;;;4.20;89.40;;;;;;4987158;28;20029;-68
2021/03/16 07:08:38;;;;;;;12.82;2.47;;;4.20;89.10;;;;;;4978150;28;20022;-70
2021/03/16 07:11:06;;;;;;;13.15;2.60;;;4.20;88.50;;;;;;4981090;28;20062;-68
2021/03/16 07:13:33;;;;;;;7.70;1.98;;;4.30;88.00;;;;;;4983271;28;20034;-69
2021/03/16 07:16:01;;;;;;;9.88;2.25;;;4.30;86.90;;;;;;4990353;28;20392;-68
2021/03/16 07:18:28;;;;;;;12.40;2.33;;;4.30;86.70;;;;;;4989681;28;20474;-69
2021/03/16 07:21:01;;;;;;;8.75;1.73;;;4.40;86.70;;;;;;4985433;28;20038;-68
2021/03/16 07:23:28;;;;;;;9.63;2.05;;;4.40;86.60;;;;;;4990247;28;20026;-68
2021/03/16 07:25:55;;;;;;;14.15;2.25;;;4.40;86.90;;;;;;4981963;28;20038;-68
2021/03/16 07:28:21;;;;;;;15.05;2.50;;;4.40;86.70;;;;;;4990666;28;20058;-68
2021/03/16 07:30:49;;;;;;;12.05;2.47;;;4.50;86.70;;;;;;4988892;28;20065;-68
2021/03/16 07:33:15;;;;;;;13.27;2.10;;;4.50;86.50;;;;;;4989943;28;20414;-66
2021/03/16 07:35:41;;;;;;;8.43;2.33;;;4.60;86.30;;;;;;4989389;28;20055;-67
2021/03/16 07:38:09;;;;;;;12.20;2.30;;;4.60;86.10;;;;;;4979557;28;20046;-67
2021/03/16 07:40:36;;;;;;;12.95;2.40;;;4.60;86.50;;;;;;4985292;28;20405;-67
2021/03/16 07:43:01;;;;;;;8.35;2.20;;;4.60;86.40;;;;;;4988443;28;20185;-67
2021/03/16 07:45:31;;;;;;;13.27;2.00;;;4.70;86.60;;;;;;4987400;28;20650;-68
2021/03/16 07:47:57;;;;;;;10.98;1.98;;;4.70;85.10;;;;;;4990625;28;20041;-67
2021/03/16 07:50:31;;;;;;;9.43;2.00;;;4.80;85.10;;;;;;4989689;28;20026;-67
2021/03/16 07:52:57;;;;;;;11.85;2.10;;;4.80;85.10;;;;;;4990238;28;20505;-66
2021/03/16 07:55:29;;;;;;;13.45;2.15;;;4.90;85.30;;;;;;4984590;28;20050;-67
2021/03/16 07:58:12;;;;;;;12.88;2.15;;;4.90;84.70;;;;;;4988756;28;20054;-67
2021/03/16 08:00:38;;;;;;;10.30;2.20;;;5.00;84.00;;;;;;4987504;28;20034;-68
2021/03/16 08:03:06;;;;;;;13.73;2.17;;;5.00;84.30;;;;;;4982262;28;20027;-67
2021/03/16 08:05:44;;;;;;;13.10;1.92;;;5.00;83.40;;;;;;4984030;28;20031;-67
2021/03/16 08:08:17;;;;;;;8.75;2.20;;;5.00;83.50;;;;;;4988632;28;21190;-68
2021/03/16 08:10:43;;;;;;;14.63;2.30;;;5.10;84.00;;;;;;4985740;28;20077;-69
2021/03/16 08:13:14;;;;;;;16.63;2.10;;;5.10;82.50;;;;;;4990284;28;20521;-67
2021/03/16 08:15:41;;;;;;;9.52;1.60;;;5.20;82.90;;;;;;4988792;28;20446;-67
2021/03/16 08:18:07;;;;;;;11.60;2.17;;;5.30;83.00;;;;;;4987697;28;20530;-68
2021/03/16 08:20:33;;;;;;;10.35;2.03;;;5.40;82.50;;;;;;4984374;28;20082;-67
2021/03/16 08:23:10;;;;;;;12.40;1.90;;;5.40;82.50;;;;;;4984497;28;20479;-68
2021/03/16 08:25:37;;;;;;;8.10;1.75;;;5.30;82.90;;;;;;4984317;28;20039;-67
2021/03/16 08:28:07;;;;;;;8.45;1.75;;;5.40;82.50;;;;;;4986674;28;20033;-67
2021/03/16 08:30:37;;;;;;;11.10;1.97;;;5.40;82.30;;;;;;4970556;28;20049;-68
2021/03/16 08:33:13;;;;;;;17.02;2.00;;;5.50;82.60;;;;;;4975714;28;20351;-68
2021/03/16 08:35:46;;;;;;;11.60;2.80;;;5.90;83.10;;;;;;4988803;28;20026;-68
2021/03/16 08:38:29;;;;;;;8.45;2.05;;;6.00;81.50;;;;;;4987147;28;20035;-68
2021/03/16 08:41:08;;;;;;;7.93;2.13;;;6.00;81.70;;;;;;4988414;28;20038;-68
2021/03/16 08:43:34;;;;;;;11.98;1.73;;;5.70;81.00;;;;;;4987974;28;20113;-68
2021/03/16 08:46:00;;;;;;;11.18;2.03;;;5.80;82.00;;;;;;4989308;28;20211;-68
2021/03/16 08:48:32;;;;;;;13.70;2.20;;;5.70;81.40;;;;;;4986138;28;20027;-67
2021/03/16 08:50:58;;;;;;;12.80;2.30;;;5.60;81.90;;;;;;4984435;28;20030;-68
2021/03/16 08:53:25;;;;;;;17.02;2.33;;;5.60;81.70;;;;;;4985406;28;20041;-67
2021/03/16 08:55:52;;;;;;;9.68;1.90;;;5.80;82.30;;;;;;4982276;28;20049;-68
2021/03/16 08:58:19;;;;;;;6.53;1.60;;;5.80;81.60;;;;;;4984955;28;20034;-68
2021/03/16 09:00:45;;;;;;;12.43;1.98;;;5.70;81.20;;;;;;4987250;28;20030;-68
2021/03/16 09:03:12;;;;;;;11.43;2.95;;;5.80;82.10;;;;;;4985553;28;20503;-67
2021/03/16 09:05:38;;;;;;;14.60;2.85;;;5.80;81.30;;;;;;4985635;28;20491;-68
2021/03/16 09:08:05;;;;;;;11.68;2.20;;;5.80;81.40;;;;;;4988515;28;20418;-68
2021/03/16 09:10:31;;;;;;;10.80;1.90;;;5.80;81.50;;;;;;4982295;28;20038;-68
2021/03/16 09:12:58;;;;;;;14.35;2.15;;;5.70;81.00;;;;;;4986600;28;20048;-68
2021/03/16 09:15:31;;;;;;;11.90;2.42;;;5.80;81.50;;;;;;4985728;28;20490;-68
2021/03/16 09:18:00;;;;;;;15.63;2.30;;;5.80;82.20;;;;;;4983964;28;20041;-69
2021/03/16 09:20:31;;;;;;;9.90;1.95;;;5.80;81.30;;;;;;4982377;28;20022;-67
2021/03/16 09:23:01;;;;;;;17.10;2.25;;;5.80;81.80;;;;;;4985655;28;20041;-69
2021/03/16 09:25:46;;;;;;;8.40;1.55;;;5.80;82.20;;;;;;4982859;28;20030;-67
2021/03/16 09:28:14;;;;;;;13.68;2.13;;;5.70;83.20;;;;;;4985571;28;20562;-69
2021/03/16 09:30:44;;;;;;;17.33;2.63;;;5.70;83.60;;;;;;4985857;28;20030;-68
2021/03/16 09:33:12;;;;;;;16.38;2.00;;;5.70;84.20;;;;;;4985780;28;20030;-68
2021/03/16 09:35:38;;;;;;;11.73;2.35;;;5.70;83.70;;;;;;4986476;28;20345;-67
2021/03/16 09:38:06;;;;;;;14.45;2.67;;;5.70;83.90;;;;;;4987234;28;20057;-68
2021/03/16 09:40:34;;;;;;;11.35;1.92;;;5.70;83.40;;;;;;4980181;28;20030;-67
2021/03/16 09:43:01;;;;;;;19.05;2.60;;;5.60;83.30;;;;;;4985795;28;20034;-68
2021/03/16 09:45:32;;;;;;;10.38;1.95;;;5.60;83.10;;;;;;4984497;28;20205;-68
2021/03/16 09:47:59;;;;;;;15.65;2.25;;;5.60;83.00;;;;;;4978312;28;20022;-67
2021/03/16 09:50:34;;;;;;;12.95;2.92;;;5.60;83.10;;;;;;4988794;28;20061;-69
2021/03/16 09:53:03;;;;;;;16.45;3.00;;;5.70;82.90;;;;;;4973364;28;20104;-67
2021/03/16 09:55:29;;;;;;;14.40;2.70;;;5.70;82.30;;;;;;4987995;28;20479;-67
2021/03/16 09:57:55;;;;;;;11.23;2.30;;;5.70;82.40;;;;;;4985689;28;20037;-67
2021/03/16 10:00:22;;;;;;;11.80;1.98;;;5.70;82.60;;;;;;4985385;28;20475;-67
2021/03/16 10:02:48;;;;;;;16.30;3.20;;;5.70;82.90;;;;;;4985593;28;20039;-68
2021/03/16 10:05:16;;;;;;;17.73;2.97;;;5.80;82.60;;;;;;4984052;28;20033;-68
2021/03/16 10:07:49;;;;;;;14.38;2.92;;;6.00;82.50;;;;;;4984221;28;20053;-68
2021/03/16 10:10:20;;;;;;;13.95;2.78;;;5.90;82.60;;;;;;4982774;28;20026;-68
2021/03/16 10:12:49;;;;;;;;;;;6.00;82.20;;;;;;4984554;28;20469;-67
2021/03/16 10:15:30;;;;;;;20.25;2.90;;;5.80;81.10;;;;;;4986655;28;19952;-67
2021/03/16 10:17:58;;;;;;;15.57;2.22;;;6.00;82.00;;;;;;4982745;28;20089;-68
2021/03/16 10:20:29;;;;;;;17.08;2.83;;;6.00;81.60;;;;;;4983719;28;20411;-67
2021/03/16 10:22:57;;;;;;;16.17;2.72;;;6.00;81.40;;;;;;4986862;28;20527;-68
2021/03/16 10:25:25;;;;;;;13.63;3.03;;;6.10;80.80;;;;;;4973477;28;20114;-68
2021/03/16 10:27:59;;;;;;;17.90;2.40;;;6.20;80.60;;;;;;4983888;28;20049;-68
2021/03/16 10:30:39;;;;;;;16.13;2.90;;;6.10;80.50;;;;;;4981671;28;20042;-68
2021/03/16 10:33:07;;;;;;;13.45;2.78;;;6.10;81.10;;;;;;4985097;28;20042;-67
2021/03/16 10:35:33;;;;;;;24.10;3.03;;;6.10;81.40;;;;;;4988465;28;20125;-68
2021/03/16 10:38:00;;;;;;;12.10;2.65;;;6.10;81.30;;;;;;4986457;28;20532;-68
2021/03/16 10:40:26;;;;;;;15.05;2.75;;;6.00;80.80;;;;;;5016632;28;20042;-68
2021/03/16 10:42:52;;;;;;;14.05;2.58;;;5.80;81.10;;;;;;4987481;28;20473;-68
2021/03/16 10:45:19;;;;;;;17.42;2.88;;;6.10;80.90;;;;;;4979446;28;20309;-68
2021/03/16 10:47:45;;;;;;;20.27;2.78;;;6.10;80.60;;;;;;4986042;28;20146;-68
2021/03/16 10:50:11;;;;;;;14.70;3.10;;;6.20;80.80;;;;;;4991562;28;20114;-68
2021/03/16 10:52:36;;;;;;;16.13;2.80;;;6.20;79.40;;;;;;4992645;28;20026;-68
2021/03/16 10:55:03;;;;;;;15.02;2.67;;;6.30;79.10;;;;;;4990931;28;20402;-68
2021/03/16 10:57:29;;;;;;;18.60;3.13;;;6.30;80.20;;;;;;4991884;28;20034;-69
2021/03/16 10:59:54;;;;;;;17.35;2.60;;;6.30;80.30;;;;;;4993119;28;20037;-68
2021/03/16 11:02:20;;;;;;;14.35;2.22;;;6.50;80.20;;;;;;4993622;28;20422;-68
2021/03/16 11:04:46;;;;;;;18.25;2.47;;;6.30;80.20;;;;;;4992432;28;20122;-68
2021/03/16 11:07:12;;;;;;;21.45;3.17;;;6.10;80.50;;;;;;4989510;28;20026;-69
2021/03/16 11:09:37;;;;;;;15.20;2.30;;;6.20;79.90;;;;;;4987690;28;20034;-68
2021/03/16 11:12:04;;;;;;;14.60;2.60;;;6.30;79.40;;;;;;4994202;28;20029;-68
2021/03/16 11:14:29;;;;;;;15.98;3.03;;;6.30;80.10;;;;;;4992937;28;20582;-67
2021/03/16 11:16:55;;;;;;;13.65;2.50;;;6.40;79.10;;;;;;4993572;28;20045;-67
2021/03/16 11:19:21;;;;;;;10.75;2.20;;;6.60;78.50;;;;;;4985063;28;20478;-67
2021/03/16 11:21:46;;;;;;;10.35;2.17;;;6.50;76.20;;;;;;4992923;28;20041;-67
2021/03/16 11:24:13;;;;;;;11.00;1.85;;;6.80;75.40;;;;;;4987354;28;20097;-69
2021/03/16 11:26:39;;;;;;;10.98;1.88;;;7.20;74.70;;;;;;4990051;28;20525;-67
2021/03/16 11:29:05;;;;;;;13.43;2.35;;;6.90;75.00;;;;;;4992326;28;20050;-68
2021/03/16 11:31:30;;;;;;;14.65;2.10;;;7.10;76.00;;;;;;4992414;28;20113;-68
2021/03/16 11:33:57;;;;;;;12.68;2.40;;;7.00;72.30;;;;;;4988549;28;20026;-67
2021/03/16 11:36:23;;;;;;;12.32;2.00;;;7.10;72.60;;;;;;4993227;28;20026;-69
2021/03/16 11:38:49;;;;;;;12.88;2.38;;;6.90;72.20;;;;;;4992943;28;20085;-67
2021/03/16 11:41:15;;;;;;;10.32;2.25;;;7.10;73.90;;;;;;4993477;28;20050;-68
2021/03/16 11:43:41;;;;;;;12.90;2.33;;;7.20;71.60;;;;;;4991295;28;20541;-68
2021/03/16 11:46:06;;;;;;;10.60;2.08;;;7.30;73.10;;;;;;4991543;28;20128;-69
2021/03/16 11:48:32;;;;;;;14.80;2.30;;;7.60;72.80;;;;;;4983960;28;20138;-69
2021/03/16 11:50:58;;;;;;;10.73;1.95;;;8.00;71.20;;;;;;5002139;28;20018;-69
2021/03/16 11:53:23;;;;;;;8.82;1.80;;;8.30;69.50;;;;;;4980234;28;20047;-67
2021/03/16 11:55:49;;;;;;;9.73;1.65;;;8.40;65.50;;;;;;4989689;28;20065;-68
2021/03/16 11:58:15;;;;;;;8.85;1.50;;;8.70;66.30;;;;;;4985267;28;20088;-68
2021/03/16 12:00:41;;;;;;;14.32;2.08;;;8.60;66.30;;;;;;4985865;28;20037;-68
2021/03/16 12:03:07;;;;;;;10.27;1.85;;;8.80;64.30;;;;;;4988864;28;20030;-68
2021/03/16 12:05:33;;;;;;;11.35;1.80;;;8.90;61.60;;;;;;4985602;28;20389;-68
2021/03/16 12:07:58;;;;;;;10.38;1.60;;;9.00;61.80;;;;;;4982674;28;20030;-68
2021/03/16 12:10:24;;;;;;;9.38;1.50;;;8.90;61.80;;;;;;4982486;28;20018;-68
2021/03/16 12:12:49;;;;;;;11.68;2.15;;;8.50;63.90;;;;;;4989182;28;20026;-67
2021/03/16 12:15:18;;;;;;;6.20;1.52;;;8.10;64.00;;;;;;4988157;28;20065;-69
2021/03/16 12:17:45;;;;;;;12.15;1.80;;;7.70;65.70;;;;;;4984074;28;20446;-67
2021/03/16 12:20:11;;;;;;;9.68;2.03;;;7.60;66.80;;;;;;4986448;28;20105;-69
2021/03/16 12:22:37;;;;;;;16.38;1.90;;;7.60;65.60;;;;;;4987507;28;20497;-69
2021/03/16 12:25:04;;;;;;;11.65;1.70;;;8.60;63.70;;;;;;4988459;28;20117;-67
2021/03/16 12:27:29;;;;;;;7.28;1.50;;;9.00;62.60;;;;;;4987385;28;20504;-68
2021/03/16 12:29:55;;;;;;;9.93;1.52;;;8.40;63.90;;;;;;4983962;28;20046;-67
2021/03/16 12:32:22;;;;;;;9.60;1.98;;;7.90;64.40;;;;;;4988933;28;20094;-68
2021/03/16 12:34:47;;;;;;;10.02;1.63;;;7.50;65.30;;;;;;4986202;28;20030;-67
2021/03/16 12:37:13;;;;;;;7.03;1.50;;;7.40;66.20;;;;;;4986453;28;20031;-67
2021/03/16 12:39:39;;;;;;;10.63;1.60;;;7.70;65.30;;;;;;4986886;28;20044;-68
2021/03/16 12:42:05;;;;;;;11.93;2.05;;;7.40;65.70;;;;;;4990175;28;20045;-68
2021/03/16 12:44:31;;;;;;;10.48;2.00;;;7.90;64.30;;;;;;4984253;28;20070;-68
2021/03/16 12:46:57;;;;;;;7.85;1.67;;;8.60;63.30;;;;;;4981449;28;20057;-68
2021/03/16 12:49:23;;;;;;;7.05;1.48;;;8.10;62.00;;;;;;4982360;28;20037;-68
2021/03/16 12:51:49;;;;;;;10.10;1.33;;;8.00;61.80;;;;;;4986499;28;20105;-68
2021/03/16 12:54:15;;;;;;;8.07;1.60;;;8.50;61.70;;;;;;4983939;28;20030;-68